sensor_id;sensor_type;location;lat;lon;timestamp;temperature;humidity
33095;DHT22;19459;53.044;8.910;2023-02-23T00:01:51;7.70;99.90
33095;DHT22;19459;53.044;8.910;2023-02-23T00:04:17;7.70;99.90
33095;DHT22;19459;53.044;8.910;2023-02-23T00:06:43;7.70;99.90
33095;DHT22;19459;53.044;8.910;2023-02-23T00:09:09;7.60;99.90
33095;DHT22;19459;53.044;8.910;2023-02-23T00:11:51;7.60;99.90
33095;DHT22;19459;53.044;8.910;2023-02-23T00:14:19;7.60;99.90
33095;DHT22;19459;53.044;8.910;2023-02-23T00:16:45;7.60;99.90
33095;DHT22;19459;53.044;8.910;2023-02-23T00:19:11;7.50;99.90
33095;DHT22;19459;53.044;8.910;2023-02-23T00:21:39;7.50;99.90
33095;DHT22;19459;53.044;8.910;2023-02-23T00:24:11;7.50;99.90
33095;DHT22;19459;53.044;8.910;2023-02-23T00:26:43;7.50;99.90
33095;DHT22;19459;53.044;8.910;2023-02-23T00:29:14;7.50;99.90
33095;DHT22;19459;53.044;8.910;2023-02-23T00:31:45;7.40;99.90
33095;DHT22;19459;53.044;8.910;2023-02-23T00:34:14;7.40;99.90
33095;DHT22;19459;53.044;8.910;2023-02-23T00:36:41;7.40;99.90
33095;DHT22;19459;53.044;8.910;2023-02-23T00:39:10;7.40;99.90
33095;DHT22;19459;53.044;8.910;2023-02-23T00:41:47;7.40;99.90
33095;DHT22;19459;53.044;8.910;2023-02-23T00:44:14;7.40;99.90
33095;DHT22;19459;53.044;8.910;2023-02-23T00:46:41;7.40;99.90
33095;DHT22;19459;53.044;8.910;2023-02-23T00:49:09;7.30;99.90
33095;DHT22;19459;53.044;8.910;2023-02-23T00:51:36;7.30;99.90
33095;DHT22;19459;53.044;8.910;2023-02-23T00:54:03;7.30;99.90
33095;DHT22;19459;53.044;8.910;2023-02-23T00:56:30;7.30;99.90
33095;DHT22;19459;53.044;8.910;2023-02-23T00:58:56;7.30;99.90
33095;DHT22;19459;53.044;8.910;2023-02-23T01:01:23;7.40;99.90
33095;DHT22;19459;53.044;8.910;2023-02-23T01:03:49;7.40;99.90
33095;DHT22;19459;53.044;8.910;2023-02-23T01:06:17;7.40;99.90
33095;DHT22;19459;53.044;8.910;2023-02-23T01:08:46;7.30;99.90
33095;DHT22;19459;53.044;8.910;2023-02-23T01:11:19;7.40;99.90
33095;DHT22;19459;53.044;8.910;2023-02-23T01:13:48;7.30;99.90
33095;DHT22;19459;53.044;8.910;2023-02-23T01:16:18;7.30;99.90
33095;DHT22;19459;53.044;8.910;2023-02-23T01:18:45;7.40;99.90
33095;DHT22;19459;53.044;8.910;2023-02-23T01:21:31;7.40;99.90
33095;DHT22;19459;53.044;8.910;2023-02-23T01:23:58;7.30;99.90
33095;DHT22;19459;53.044;8.910;2023-02-23T01:26:27;7.30;99.90
33095;DHT22;19459;53.044;8.910;2023-02-23T01:28:57;7.40;99.90
33095;DHT22;19459;53.044;8.910;2023-02-23T01:31:26;7.40;99.90
33095;DHT22;19459;53.044;8.910;2023-02-23T01:33:54;7.40;99.90
33095;DHT22;19459;53.044;8.910;2023-02-23T01:36:23;7.40;99.90
33095;DHT22;19459;53.044;8.910;2023-02-23T01:38:52;7.40;99.90
33095;DHT22;19459;53.044;8.910;2023-02-23T01:41:25;7.40;99.90
33095;DHT22;19459;53.044;8.910;2023-02-23T01:46:36;7.40;99.90
33095;DHT22;19459;53.044;8.910;2023-02-23T01:49:15;7.40;99.90
33095;DHT22;19459;53.044;8.910;2023-02-23T01:52:10;7.40;99.90
33095;DHT22;19459;53.044;8.910;2023-02-23T01:54:41;7.40;99.90
33095;DHT22;19459;53.044;8.910;2023-02-23T01:57:15;7.40;99.90
33095;DHT22;19459;53.044;8.910;2023-02-23T01:59:44;7.40;99.90
33095;DHT22;19459;53.044;8.910;2023-02-23T02:02:11;7.40;99.90
33095;DHT22;19459;53.044;8.910;2023-02-23T02:04:41;7.40;99.90
33095;DHT22;19459;53.044;8.910;2023-02-23T02:07:20;7.40;99.90
33095;DHT22;19459;53.044;8.910;2023-02-23T02:09:49;7.40;99.90
33095;DHT22;19459;53.044;8.910;2023-02-23T02:12:56;7.40;99.90
33095;DHT22;19459;53.044;8.910;2023-02-23T02:15:24;7.40;99.90
33095;DHT22;19459;53.044;8.910;2023-02-23T02:17:57;7.40;99.90
33095;DHT22;19459;53.044;8.910;2023-02-23T02:24:03;7.50;99.90
33095;DHT22;19459;53.044;8.910;2023-02-23T02:33:04;7.50;99.90
33095;DHT22;19459;53.044;8.910;2023-02-23T02:35:57;7.60;99.90
33095;DHT22;19459;53.044;8.910;2023-02-23T02:39:22;7.60;99.90
33095;DHT22;19459;53.044;8.910;2023-02-23T02:42:17;7.60;99.90
33095;DHT22;19459;53.044;8.910;2023-02-23T02:45:05;7.60;99.90
33095;DHT22;19459;53.044;8.910;2023-02-23T02:50:41;7.60;99.90
33095;DHT22;19459;53.044;8.910;2023-02-23T02:53:16;7.60;99.90
33095;DHT22;19459;53.044;8.910;2023-02-23T02:55:56;7.60;99.90
33095;DHT22;19459;53.044;8.910;2023-02-23T02:58:24;7.60;99.90
33095;DHT22;19459;53.044;8.910;2023-02-23T03:00:52;7.60;99.90
33095;DHT22;19459;53.044;8.910;2023-02-23T03:03:39;7.60;99.90
33095;DHT22;19459;53.044;8.910;2023-02-23T03:06:32;7.60;99.90
33095;DHT22;19459;53.044;8.910;2023-02-23T03:22:17;7.60;99.90
33095;DHT22;19459;53.044;8.910;2023-02-23T03:25:10;7.60;99.90
33095;DHT22;19459;53.044;8.910;2023-02-23T03:28:11;7.70;99.90
33095;DHT22;19459;53.044;8.910;2023-02-23T03:31:14;7.60;99.90
33095;DHT22;19459;53.044;8.910;2023-02-23T03:34:32;7.70;99.90
33095;DHT22;19459;53.044;8.910;2023-02-23T03:37:56;7.70;99.90
33095;DHT22;19459;53.044;8.910;2023-02-23T03:40:47;7.70;99.90
33095;DHT22;19459;53.044;8.910;2023-02-23T03:43:35;7.70;99.90
33095;DHT22;19459;53.044;8.910;2023-02-23T03:46:24;7.70;99.90
33095;DHT22;19459;53.044;8.910;2023-02-23T03:49:11;7.70;99.90
33095;DHT22;19459;53.044;8.910;2023-02-23T03:52:02;7.70;99.90
33095;DHT22;19459;53.044;8.910;2023-02-23T03:55:00;7.70;99.90
33095;DHT22;19459;53.044;8.910;2023-02-23T03:57:50;7.70;99.90
33095;DHT22;19459;53.044;8.910;2023-02-23T04:00:42;7.70;99.90
33095;DHT22;19459;53.044;8.910;2023-02-23T04:03:31;7.70;99.90
33095;DHT22;19459;53.044;8.910;2023-02-23T04:06:18;7.70;99.90
33095;DHT22;19459;53.044;8.910;2023-02-23T04:09:06;7.70;99.90
33095;DHT22;19459;53.044;8.910;2023-02-23T04:17:37;7.70;99.90
33095;DHT22;19459;53.044;8.910;2023-02-23T04:20:04;7.70;99.90
33095;DHT22;19459;53.044;8.910;2023-02-23T04:22:31;7.70;99.90
33095;DHT22;19459;53.044;8.910;2023-02-23T04:24:57;7.80;99.90
33095;DHT22;19459;53.044;8.910;2023-02-23T04:27:23;7.70;99.90
33095;DHT22;19459;53.044;8.910;2023-02-23T04:29:48;7.80;99.90
33095;DHT22;19459;53.044;8.910;2023-02-23T04:32:17;7.80;99.90
33095;DHT22;19459;53.044;8.910;2023-02-23T04:34:45;7.80;99.90
33095;DHT22;19459;53.044;8.910;2023-02-23T04:37:11;7.80;99.90
33095;DHT22;19459;53.044;8.910;2023-02-23T04:39:38;7.80;99.90
33095;DHT22;19459;53.044;8.910;2023-02-23T04:42:03;7.80;99.90
33095;DHT22;19459;53.044;8.910;2023-02-23T04:44:29;7.80;99.90
33095;DHT22;19459;53.044;8.910;2023-02-23T04:46:56;7.80;99.90
33095;DHT22;19459;53.044;8.910;2023-02-23T04:49:22;7.80;99.90
33095;DHT22;19459;53.044;8.910;2023-02-23T04:51:48;7.80;99.90
33095;DHT22;19459;53.044;8.910;2023-02-23T04:54:14;7.80;99.90
33095;DHT22;19459;53.044;8.910;2023-02-23T04:56:40;7.80;99.90
33095;DHT22;19459;53.044;8.910;2023-02-23T04:59:06;7.80;99.90
33095;DHT22;19459;53.044;8.910;2023-02-23T05:01:32;7.80;99.90
33095;DHT22;19459;53.044;8.910;2023-02-23T05:03:58;7.80;99.90
33095;DHT22;19459;53.044;8.910;2023-02-23T05:06:25;7.80;99.90
33095;DHT22;19459;53.044;8.910;2023-02-23T05:08:51;7.80;99.90
33095;DHT22;19459;53.044;8.910;2023-02-23T05:11:17;7.80;99.90
33095;DHT22;19459;53.044;8.910;2023-02-23T05:13:43;7.80;99.90
33095;DHT22;19459;53.044;8.910;2023-02-23T05:16:08;7.80;99.90
33095;DHT22;19459;53.044;8.910;2023-02-23T05:18:34;7.80;99.90
33095;DHT22;19459;53.044;8.910;2023-02-23T05:21:04;7.80;99.90
33095;DHT22;19459;53.044;8.910;2023-02-23T05:23:32;7.90;99.90
33095;DHT22;19459;53.044;8.910;2023-02-23T05:26:00;7.80;99.90
33095;DHT22;19459;53.044;8.910;2023-02-23T05:28:29;7.80;99.90
33095;DHT22;19459;53.044;8.910;2023-02-23T05:30:54;7.90;99.90
33095;DHT22;19459;53.044;8.910;2023-02-23T05:33:20;7.80;99.90
33095;DHT22;19459;53.044;8.910;2023-02-23T05:35:47;7.90;99.90
33095;DHT22;19459;53.044;8.910;2023-02-23T05:38:13;7.80;99.90
33095;DHT22;19459;53.044;8.910;2023-02-23T05:40:39;7.90;99.90
33095;DHT22;19459;53.044;8.910;2023-02-23T05:43:06;7.80;99.90
33095;DHT22;19459;53.044;8.910;2023-02-23T05:45:31;7.80;99.90
33095;DHT22;19459;53.044;8.910;2023-02-23T05:47:58;7.90;99.90
33095;DHT22;19459;53.044;8.910;2023-02-23T05:50:24;7.80;99.90
33095;DHT22;19459;53.044;8.910;2023-02-23T05:52:50;7.80;99.90
33095;DHT22;19459;53.044;8.910;2023-02-23T05:55:16;7.80;99.90
33095;DHT22;19459;53.044;8.910;2023-02-23T05:57:42;7.80;99.90
33095;DHT22;19459;53.044;8.910;2023-02-23T06:00:10;7.80;99.90
33095;DHT22;19459;53.044;8.910;2023-02-23T06:02:37;7.80;99.90
33095;DHT22;19459;53.044;8.910;2023-02-23T06:05:04;7.80;99.90
33095;DHT22;19459;53.044;8.910;2023-02-23T06:07:30;7.80;99.90
33095;DHT22;19459;53.044;8.910;2023-02-23T06:09:56;7.80;99.90
33095;DHT22;19459;53.044;8.910;2023-02-23T06:12:22;7.80;99.90
33095;DHT22;19459;53.044;8.910;2023-02-23T06:14:48;7.80;99.90
33095;DHT22;19459;53.044;8.910;2023-02-23T06:17:15;7.80;99.90
33095;DHT22;19459;53.044;8.910;2023-02-23T06:19:41;7.80;99.90
33095;DHT22;19459;53.044;8.910;2023-02-23T06:22:07;7.80;99.90
33095;DHT22;19459;53.044;8.910;2023-02-23T06:24:33;7.80;99.90
33095;DHT22;19459;53.044;8.910;2023-02-23T06:26:59;7.80;99.90
33095;DHT22;19459;53.044;8.910;2023-02-23T06:29:26;7.80;99.90
33095;DHT22;19459;53.044;8.910;2023-02-23T06:31:52;7.80;99.90
33095;DHT22;19459;53.044;8.910;2023-02-23T06:34:18;7.80;99.90
33095;DHT22;19459;53.044;8.910;2023-02-23T06:36:44;7.80;99.90
33095;DHT22;19459;53.044;8.910;2023-02-23T06:39:10;7.80;99.90
33095;DHT22;19459;53.044;8.910;2023-02-23T06:41:37;7.80;99.90
33095;DHT22;19459;53.044;8.910;2023-02-23T06:44:03;7.80;99.90
33095;DHT22;19459;53.044;8.910;2023-02-23T06:46:29;7.80;99.90
33095;DHT22;19459;53.044;8.910;2023-02-23T06:48:56;7.80;99.90
33095;DHT22;19459;53.044;8.910;2023-02-23T06:51:22;7.80;99.90
33095;DHT22;19459;53.044;8.910;2023-02-23T06:53:48;7.90;99.90
33095;DHT22;19459;53.044;8.910;2023-02-23T06:56:16;7.80;99.90
33095;DHT22;19459;53.044;8.910;2023-02-23T06:58:42;7.90;99.90
33095;DHT22;19459;53.044;8.910;2023-02-23T07:01:08;7.90;99.90
33095;DHT22;19459;53.044;8.910;2023-02-23T07:03:37;7.90;99.90
33095;DHT22;19459;53.044;8.910;2023-02-23T07:06:03;7.90;99.90
33095;DHT22;19459;53.044;8.910;2023-02-23T07:08:30;7.90;99.90
33095;DHT22;19459;53.044;8.910;2023-02-23T07:11:07;7.80;99.90
33095;DHT22;19459;53.044;8.910;2023-02-23T07:13:38;7.90;99.90
33095;DHT22;19459;53.044;8.910;2023-02-23T07:16:05;7.90;99.90
33095;DHT22;19459;53.044;8.910;2023-02-23T07:18:31;7.90;99.90
33095;DHT22;19459;53.044;8.910;2023-02-23T07:20:57;7.80;99.90
33095;DHT22;19459;53.044;8.910;2023-02-23T07:23:23;7.90;99.90
33095;DHT22;19459;53.044;8.910;2023-02-23T07:25:50;7.90;99.90
33095;DHT22;19459;53.044;8.910;2023-02-23T07:28:16;7.90;99.90
33095;DHT22;19459;53.044;8.910;2023-02-23T07:30:42;7.90;99.90
33095;DHT22;19459;53.044;8.910;2023-02-23T07:33:08;8.00;99.90
33095;DHT22;19459;53.044;8.910;2023-02-23T07:35:33;7.90;99.90
33095;DHT22;19459;53.044;8.910;2023-02-23T07:37:59;8.00;99.90
33095;DHT22;19459;53.044;8.910;2023-02-23T07:40:25;8.00;99.90
33095;DHT22;19459;53.044;8.910;2023-02-23T07:42:51;8.00;99.90
33095;DHT22;19459;53.044;8.910;2023-02-23T07:45:17;8.00;99.90
33095;DHT22;19459;53.044;8.910;2023-02-23T07:47:43;8.00;99.90
33095;DHT22;19459;53.044;8.910;2023-02-23T07:50:09;8.00;99.90
33095;DHT22;19459;53.044;8.910;2023-02-23T07:52:38;8.00;99.90
33095;DHT22;19459;53.044;8.910;2023-02-23T07:55:06;8.10;99.90
33095;DHT22;19459;53.044;8.910;2023-02-23T07:57:33;8.10;99.90
33095;DHT22;19459;53.044;8.910;2023-02-23T07:59:59;8.10;99.90
33095;DHT22;19459;53.044;8.910;2023-02-23T08:02:26;8.10;99.90
33095;DHT22;19459;53.044;8.910;2023-02-23T08:04:53;8.20;99.90
33095;DHT22;19459;53.044;8.910;2023-02-23T08:07:20;8.10;99.90
33095;DHT22;19459;53.044;8.910;2023-02-23T08:09:47;8.20;99.90
33095;DHT22;19459;53.044;8.910;2023-02-23T08:12:14;8.20;99.90
33095;DHT22;19459;53.044;8.910;2023-02-23T08:14:40;8.30;99.90
33095;DHT22;19459;53.044;8.910;2023-02-23T08:17:07;8.30;99.90
33095;DHT22;19459;53.044;8.910;2023-02-23T08:19:32;8.20;99.90
33095;DHT22;19459;53.044;8.910;2023-02-23T08:21:59;8.20;99.90
33095;DHT22;19459;53.044;8.910;2023-02-23T08:24:25;8.30;99.90
33095;DHT22;19459;53.044;8.910;2023-02-23T08:26:51;8.30;99.90
33095;DHT22;19459;53.044;8.910;2023-02-23T08:29:17;8.20;99.90
33095;DHT22;19459;53.044;8.910;2023-02-23T08:31:43;8.20;99.90
33095;DHT22;19459;53.044;8.910;2023-02-23T08:34:09;8.20;99.90
33095;DHT22;19459;53.044;8.910;2023-02-23T08:36:35;8.20;99.90
33095;DHT22;19459;53.044;8.910;2023-02-23T08:39:01;8.20;99.90
33095;DHT22;19459;53.044;8.910;2023-02-23T08:41:27;8.20;99.90
33095;DHT22;19459;53.044;8.910;2023-02-23T08:43:53;8.20;99.90
33095;DHT22;19459;53.044;8.910;2023-02-23T08:46:19;8.30;99.90
33095;DHT22;19459;53.044;8.910;2023-02-23T08:48:45;8.30;99.90
33095;DHT22;19459;53.044;8.910;2023-02-23T08:51:12;8.30;99.90
33095;DHT22;19459;53.044;8.910;2023-02-23T08:53:40;8.30;99.90
33095;DHT22;19459;53.044;8.910;2023-02-23T08:56:06;8.30;99.90
33095;DHT22;19459;53.044;8.910;2023-02-23T08:58:34;8.30;99.90
33095;DHT22;19459;53.044;8.910;2023-02-23T09:01:00;8.30;99.90
33095;DHT22;19459;53.044;8.910;2023-02-23T09:03:31;8.30;99.90
33095;DHT22;19459;53.044;8.910;2023-02-23T09:06:10;8.40;99.90
33095;DHT22;19459;53.044;8.910;2023-02-23T09:08:37;8.40;99.90
33095;DHT22;19459;53.044;8.910;2023-02-23T09:11:04;8.40;99.90
33095;DHT22;19459;53.044;8.910;2023-02-23T09:13:30;8.40;99.90
33095;DHT22;19459;53.044;8.910;2023-02-23T09:15:57;8.50;99.90
33095;DHT22;19459;53.044;8.910;2023-02-23T09:18:23;8.50;99.90
33095;DHT22;19459;53.044;8.910;2023-02-23T09:20:53;8.60;99.90
33095;DHT22;19459;53.044;8.910;2023-02-23T09:23:19;8.60;99.90
33095;DHT22;19459;53.044;8.910;2023-02-23T09:25:45;8.50;99.90
33095;DHT22;19459;53.044;8.910;2023-02-23T09:28:17;8.50;99.90
33095;DHT22;19459;53.044;8.910;2023-02-23T09:30:45;8.50;99.90
33095;DHT22;19459;53.044;8.910;2023-02-23T09:33:12;8.50;99.90
33095;DHT22;19459;53.044;8.910;2023-02-23T09:35:38;8.50;99.90
33095;DHT22;19459;53.044;8.910;2023-02-23T09:38:05;8.50;99.90
33095;DHT22;19459;53.044;8.910;2023-02-23T09:40:46;8.60;99.90
33095;DHT22;19459;53.044;8.910;2023-02-23T09:43:35;8.60;99.90
33095;DHT22;19459;53.044;8.910;2023-02-23T09:48:51;8.60;99.90
33095;DHT22;19459;53.044;8.910;2023-02-23T09:51:19;8.70;99.90
33095;DHT22;19459;53.044;8.910;2023-02-23T09:53:55;8.70;99.90
33095;DHT22;19459;53.044;8.910;2023-02-23T09:56:37;8.60;99.90
33095;DHT22;19459;53.044;8.910;2023-02-23T09:59:05;8.60;99.90
33095;DHT22;19459;53.044;8.910;2023-02-23T10:01:41;8.70;99.90
33095;DHT22;19459;53.044;8.910;2023-02-23T10:04:42;8.60;99.90
33095;DHT22;19459;53.044;8.910;2023-02-23T10:10:02;8.60;99.90
33095;DHT22;19459;53.044;8.910;2023-02-23T10:18:25;8.80;99.90
33095;DHT22;19459;53.044;8.910;2023-02-23T10:21:15;8.80;99.90
33095;DHT22;19459;53.044;8.910;2023-02-23T10:24:05;8.70;99.90
33095;DHT22;19459;53.044;8.910;2023-02-23T10:26:45;8.80;99.90
33095;DHT22;19459;53.044;8.910;2023-02-23T10:29:35;8.80;99.90
33095;DHT22;19459;53.044;8.910;2023-02-23T10:32:40;8.70;99.90
33095;DHT22;19459;53.044;8.910;2023-02-23T10:35:17;8.80;99.90
33095;DHT22;19459;53.044;8.910;2023-02-23T10:37:46;8.90;99.90
33095;DHT22;19459;53.044;8.910;2023-02-23T10:40:22;8.90;99.90
33095;DHT22;19459;53.044;8.910;2023-02-23T10:42:50;8.90;99.90
33095;DHT22;19459;53.044;8.910;2023-02-23T10:45:22;9.00;99.90
33095;DHT22;19459;53.044;8.910;2023-02-23T10:47:56;9.00;99.90
33095;DHT22;19459;53.044;8.910;2023-02-23T10:50:40;9.00;99.90
33095;DHT22;19459;53.044;8.910;2023-02-23T10:55:43;8.90;99.90
33095;DHT22;19459;53.044;8.910;2023-02-23T10:58:18;8.90;99.90
33095;DHT22;19459;53.044;8.910;2023-02-23T11:00:57;8.90;99.90
33095;DHT22;19459;53.044;8.910;2023-02-23T11:06:00;8.90;99.90
33095;DHT22;19459;53.044;8.910;2023-02-23T11:08:33;9.00;99.90
33095;DHT22;19459;53.044;8.910;2023-02-23T11:11:17;9.00;99.90
33095;DHT22;19459;53.044;8.910;2023-02-23T11:13:49;9.00;99.90
33095;DHT22;19459;53.044;8.910;2023-02-23T11:16:22;8.90;99.90
33095;DHT22;19459;53.044;8.910;2023-02-23T11:18:58;8.90;99.90
33095;DHT22;19459;53.044;8.910;2023-02-23T11:21:37;8.90;99.90
33095;DHT22;19459;53.044;8.910;2023-02-23T11:24:17;8.90;99.90
33095;DHT22;19459;53.044;8.910;2023-02-23T11:26:54;8.90;99.90
33095;DHT22;19459;53.044;8.910;2023-02-23T11:29:36;8.70;99.90
33095;DHT22;19459;53.044;8.910;2023-02-23T11:32:16;8.70;99.90
33095;DHT22;19459;53.044;8.910;2023-02-23T11:37:47;8.70;99.90
33095;DHT22;19459;53.044;8.910;2023-02-23T11:40:23;8.70;99.90
33095;DHT22;19459;53.044;8.910;2023-02-23T11:42:55;8.70;99.90
33095;DHT22;19459;53.044;8.910;2023-02-23T11:45:26;8.70;99.90
33095;DHT22;19459;53.044;8.910;2023-02-23T11:47:56;8.70;99.90
33095;DHT22;19459;53.044;8.910;2023-02-23T11:53:06;8.70;99.90
33095;DHT22;19459;53.044;8.910;2023-02-23T11:55:38;8.60;99.90
33095;DHT22;19459;53.044;8.910;2023-02-23T11:58:56;8.60;99.90
33095;DHT22;19459;53.044;8.910;2023-02-23T12:01:07;8.60;99.90
33095;DHT22;19459;53.044;8.910;2023-02-23T12:03:58;8.60;99.90
33095;DHT22;19459;53.044;8.910;2023-02-23T12:06:37;8.50;99.90
33095;DHT22;19459;53.044;8.910;2023-02-23T12:09:21;8.50;99.90
33095;DHT22;19459;53.044;8.910;2023-02-23T12:12:25;8.60;99.90
33095;DHT22;19459;53.044;8.910;2023-02-23T12:14:55;8.50;99.90
33095;DHT22;19459;53.044;8.910;2023-02-23T12:17:30;8.60;99.90
33095;DHT22;19459;53.044;8.910;2023-02-23T12:23:20;8.50;99.90
33095;DHT22;19459;53.044;8.910;2023-02-23T12:25:57;8.50;99.90
33095;DHT22;19459;53.044;8.910;2023-02-23T12:28:42;8.40;99.90
33095;DHT22;19459;53.044;8.910;2023-02-23T12:31:41;8.30;99.90
33095;DHT22;19459;53.044;8.910;2023-02-23T12:34:27;8.30;99.90
33095;DHT22;19459;53.044;8.910;2023-02-23T12:40:13;8.30;99.90
33095;DHT22;19459;53.044;8.910;2023-02-23T12:43:04;8.30;99.90
33095;DHT22;19459;53.044;8.910;2023-02-23T12:45:51;8.30;99.90
33095;DHT22;19459;53.044;8.910;2023-02-23T12:52:04;8.20;99.90
33095;DHT22;19459;53.044;8.910;2023-02-23T12:54:34;8.20;99.90
33095;DHT22;19459;53.044;8.910;2023-02-23T13:24:05;7.80;99.90
33095;DHT22;19459;53.044;8.910;2023-02-23T13:27:00;7.80;99.90
33095;DHT22;19459;53.044;8.910;2023-02-23T13:29:50;7.80;99.90
33095;DHT22;19459;53.044;8.910;2023-02-23T13:32:20;7.80;99.90
33095;DHT22;19459;53.044;8.910;2023-02-23T13:34:51;7.80;99.90
33095;DHT22;19459;53.044;8.910;2023-02-23T13:37:25;7.80;99.90
33095;DHT22;19459;53.044;8.910;2023-02-23T13:51:59;7.90;99.90
33095;DHT22;19459;53.044;8.910;2023-02-23T13:54:34;8.00;99.90
33095;DHT22;19459;53.044;8.910;2023-02-23T13:57:12;8.00;99.90
33095;DHT22;19459;53.044;8.910;2023-02-23T13:59:43;8.00;99.90
33095;DHT22;19459;53.044;8.910;2023-02-23T14:05:14;8.10;99.90
33095;DHT22;19459;53.044;8.910;2023-02-23T14:07:43;8.10;99.90
33095;DHT22;19459;53.044;8.910;2023-02-23T14:10:26;8.10;99.90
33095;DHT22;19459;53.044;8.910;2023-02-23T14:21:02;8.30;99.90
33095;DHT22;19459;53.044;8.910;2023-02-23T14:24:04;8.30;99.90
33095;DHT22;19459;53.044;8.910;2023-02-23T14:26:41;8.40;99.90
33095;DHT22;19459;53.044;8.910;2023-02-23T14:37:18;8.40;99.90
33095;DHT22;19459;53.044;8.910;2023-02-23T14:39:53;8.40;99.90
33095;DHT22;19459;53.044;8.910;2023-02-23T14:42:25;8.40;99.90
33095;DHT22;19459;53.044;8.910;2023-02-23T14:44:53;8.40;99.90
33095;DHT22;19459;53.044;8.910;2023-02-23T14:47:22;8.40;99.90
33095;DHT22;19459;53.044;8.910;2023-02-23T14:49:57;8.50;99.90
33095;DHT22;19459;53.044;8.910;2023-02-23T14:52:29;8.60;99.90
33095;DHT22;19459;53.044;8.910;2023-02-23T14:55:25;8.60;99.90
33095;DHT22;19459;53.044;8.910;2023-02-23T14:57:52;8.60;99.90
33095;DHT22;19459;53.044;8.910;2023-02-23T15:00:32;8.70;99.90
33095;DHT22;19459;53.044;8.910;2023-02-23T15:03:10;8.70;99.90
33095;DHT22;19459;53.044;8.910;2023-02-23T15:05:56;8.70;99.90
33095;DHT22;19459;53.044;8.910;2023-02-23T15:08:26;8.70;99.90
33095;DHT22;19459;53.044;8.910;2023-02-23T15:11:06;8.80;99.90
33095;DHT22;19459;53.044;8.910;2023-02-23T15:13:39;8.70;99.90
33095;DHT22;19459;53.044;8.910;2023-02-23T15:16:15;8.70;99.90
33095;DHT22;19459;53.044;8.910;2023-02-23T15:18:53;8.70;99.90
33095;DHT22;19459;53.044;8.910;2023-02-23T15:21:22;8.70;99.90
33095;DHT22;19459;53.044;8.910;2023-02-23T15:24:11;8.60;99.90
33095;DHT22;19459;53.044;8.910;2023-02-23T15:26:39;8.60;99.90
33095;DHT22;19459;53.044;8.910;2023-02-23T15:29:20;8.60;99.90
33095;DHT22;19459;53.044;8.910;2023-02-23T15:31:52;8.60;99.90
33095;DHT22;19459;53.044;8.910;2023-02-23T15:34:27;8.60;99.90
33095;DHT22;19459;53.044;8.910;2023-02-23T15:37:09;8.60;99.90
33095;DHT22;19459;53.044;8.910;2023-02-23T15:39:44;8.60;99.90
33095;DHT22;19459;53.044;8.910;2023-02-23T15:42:17;8.60;99.90
33095;DHT22;19459;53.044;8.910;2023-02-23T15:44:57;8.60;99.90
33095;DHT22;19459;53.044;8.910;2023-02-23T15:47:30;8.60;99.90
33095;DHT22;19459;53.044;8.910;2023-02-23T15:50:20;8.60;99.90
33095;DHT22;19459;53.044;8.910;2023-02-23T15:52:50;8.60;99.90
33095;DHT22;19459;53.044;8.910;2023-02-23T15:55:34;8.60;99.90
33095;DHT22;19459;53.044;8.910;2023-02-23T16:00:42;8.50;99.90
33095;DHT22;19459;53.044;8.910;2023-02-23T16:03:23;8.50;99.90
33095;DHT22;19459;53.044;8.910;2023-02-23T16:06:07;8.50;99.90
33095;DHT22;19459;53.044;8.910;2023-02-23T16:11:44;8.50;99.90
33095;DHT22;19459;53.044;8.910;2023-02-23T16:14:15;8.40;99.90
33095;DHT22;19459;53.044;8.910;2023-02-23T16:16:41;8.30;99.90
33095;DHT22;19459;53.044;8.910;2023-02-23T16:19:12;8.30;99.90
33095;DHT22;19459;53.044;8.910;2023-02-23T16:21:39;8.10;99.90
33095;DHT22;19459;53.044;8.910;2023-02-23T16:24:09;7.90;99.90
33095;DHT22;19459;53.044;8.910;2023-02-23T16:26:57;7.60;99.90
33095;DHT22;19459;53.044;8.910;2023-02-23T16:29:32;7.40;99.90
33095;DHT22;19459;53.044;8.910;2023-02-23T16:32:20;7.30;99.90
33095;DHT22;19459;53.044;8.910;2023-02-23T16:35:18;7.20;99.90
33095;DHT22;19459;53.044;8.910;2023-02-23T16:38:12;7.00;99.90
33095;DHT22;19459;53.044;8.910;2023-02-23T16:40:49;6.90;99.90
33095;DHT22;19459;53.044;8.910;2023-02-23T16:43:15;6.80;99.90
33095;DHT22;19459;53.044;8.910;2023-02-23T16:45:42;6.80;99.90
33095;DHT22;19459;53.044;8.910;2023-02-23T16:48:16;6.70;99.90
33095;DHT22;19459;53.044;8.910;2023-02-23T16:50:43;6.70;99.90
33095;DHT22;19459;53.044;8.910;2023-02-23T16:53:11;6.70;99.90
33095;DHT22;19459;53.044;8.910;2023-02-23T16:55:40;6.60;99.90
33095;DHT22;19459;53.044;8.910;2023-02-23T16:58:15;6.60;99.90
33095;DHT22;19459;53.044;8.910;2023-02-23T17:00:43;6.60;99.90
33095;DHT22;19459;53.044;8.910;2023-02-23T17:03:22;6.60;99.90
33095;DHT22;19459;53.044;8.910;2023-02-23T17:05:49;6.50;99.90
33095;DHT22;19459;53.044;8.910;2023-02-23T17:08:15;6.40;99.90
33095;DHT22;19459;53.044;8.910;2023-02-23T17:10:43;6.40;99.90
33095;DHT22;19459;53.044;8.910;2023-02-23T17:13:25;6.40;99.90
33095;DHT22;19459;53.044;8.910;2023-02-23T17:15:53;6.40;99.90
33095;DHT22;19459;53.044;8.910;2023-02-23T17:18:34;6.30;99.90
33095;DHT22;19459;53.044;8.910;2023-02-23T17:21:07;6.30;99.90
33095;DHT22;19459;53.044;8.910;2023-02-23T17:23:37;6.30;99.90
33095;DHT22;19459;53.044;8.910;2023-02-23T17:26:16;6.20;99.90
33095;DHT22;19459;53.044;8.910;2023-02-23T17:28:44;6.20;99.90
33095;DHT22;19459;53.044;8.910;2023-02-23T17:31:10;6.30;99.90
33095;DHT22;19459;53.044;8.910;2023-02-23T17:33:37;6.30;99.90
33095;DHT22;19459;53.044;8.910;2023-02-23T17:36:07;6.30;99.90
33095;DHT22;19459;53.044;8.910;2023-02-23T17:38:34;6.30;99.90
33095;DHT22;19459;53.044;8.910;2023-02-23T17:41:06;6.20;99.90
33095;DHT22;19459;53.044;8.910;2023-02-23T17:43:34;6.20;99.90
33095;DHT22;19459;53.044;8.910;2023-02-23T17:46:00;6.20;99.90
33095;DHT22;19459;53.044;8.910;2023-02-23T17:48:27;6.10;99.90
33095;DHT22;19459;53.044;8.910;2023-02-23T17:51:01;6.10;99.90
33095;DHT22;19459;53.044;8.910;2023-02-23T17:53:33;6.10;99.90
33095;DHT22;19459;53.044;8.910;2023-02-23T17:55:59;6.10;99.90
33095;DHT22;19459;53.044;8.910;2023-02-23T17:58:25;6.10;99.90
33095;DHT22;19459;53.044;8.910;2023-02-23T18:00:56;6.10;99.90
33095;DHT22;19459;53.044;8.910;2023-02-23T18:03:25;6.00;99.90
33095;DHT22;19459;53.044;8.910;2023-02-23T18:06:16;6.00;99.90
33095;DHT22;19459;53.044;8.910;2023-02-23T18:08:43;6.00;99.90
33095;DHT22;19459;53.044;8.910;2023-02-23T18:11:10;5.90;99.90
33095;DHT22;19459;53.044;8.910;2023-02-23T18:13:36;5.80;99.90
33095;DHT22;19459;53.044;8.910;2023-02-23T18:16:05;5.80;99.90
33095;DHT22;19459;53.044;8.910;2023-02-23T18:18:34;5.80;99.90
33095;DHT22;19459;53.044;8.910;2023-02-23T18:21:02;5.80;99.90
33095;DHT22;19459;53.044;8.910;2023-02-23T18:23:29;5.80;99.90
33095;DHT22;19459;53.044;8.910;2023-02-23T18:26:08;5.80;99.90
33095;DHT22;19459;53.044;8.910;2023-02-23T18:28:36;5.70;99.90
33095;DHT22;19459;53.044;8.910;2023-02-23T18:31:04;5.70;99.90
33095;DHT22;19459;53.044;8.910;2023-02-23T18:33:30;5.70;99.90